createdAt,value
2023-05-14T00:01:04.751Z,6.22
2023-05-14T00:03:34.157Z,6.35
2023-05-14T00:06:02.091Z,6.65
2023-05-14T00:08:32.841Z,6.35
2023-05-14T00:11:05.535Z,5.70
2023-05-14T00:13:33.513Z,5.18
2023-05-14T00:16:01.572Z,6.30
2023-05-14T00:18:29.618Z,5.05
2023-05-14T00:20:59.004Z,4.90
2023-05-14T00:23:27.058Z,7.28
2023-05-14T00:25:55.002Z,4.88
2023-05-14T00:28:23.141Z,5.55
2023-05-14T00:30:51.088Z,6.93
2023-05-14T00:33:19.086Z,5.43
2023-05-14T00:35:47.070Z,4.85
2023-05-14T00:38:17.668Z,5.32
2023-05-14T00:40:51.107Z,5.60
2023-05-14T00:43:19.709Z,5.80
2023-05-14T00:45:52.766Z,6.03
2023-05-14T00:48:21.521Z,4.72
2023-05-14T00:50:50.994Z,5.35
2023-05-14T00:53:21.717Z,5.47
2023-05-14T00:55:51.084Z,7.30
2023-05-14T00:58:20.154Z,6.00
2023-05-14T01:00:48.305Z,5.85
2023-05-14T01:03:16.614Z,5.70
2023-05-14T01:05:55.024Z,4.85
2023-05-14T01:08:33.691Z,4.90
2023-05-14T01:11:07.928Z,5.28
2023-05-14T01:13:46.446Z,6.20
2023-05-14T01:16:20.061Z,4.60
2023-05-14T01:18:52.001Z,6.88
2023-05-14T01:21:36.360Z,6.30
2023-05-14T01:24:04.783Z,5.18
2023-05-14T01:26:32.914Z,5.05
2023-05-14T01:29:09.545Z,5.68
2023-05-14T01:31:40.062Z,5.63
2023-05-14T01:34:09.962Z,5.22
2023-05-14T01:36:41.568Z,5.43
2023-05-14T01:39:10.592Z,4.88
2023-05-14T01:41:40.232Z,5.15
2023-05-14T01:44:09.933Z,7.95
2023-05-14T01:46:38.121Z,7.57
2023-05-14T01:49:06.188Z,5.40
2023-05-14T01:51:36.334Z,6.47
2023-05-14T01:54:05.872Z,5.25
2023-05-14T01:56:33.796Z,5.28
2023-05-14T01:59:01.745Z,6.40
2023-05-14T02:01:29.793Z,6.07
2023-05-14T02:03:58.071Z,5.25
2023-05-14T02:06:26.149Z,7.50
2023-05-14T02:08:54.186Z,4.97
2023-05-14T02:11:23.413Z,5.15
2023-05-14T02:13:51.635Z,6.50
2023-05-14T02:16:19.950Z,6.15
2023-05-14T02:18:48.035Z,6.88
2023-05-14T02:21:16.048Z,6.03
2023-05-14T02:23:44.269Z,6.00
2023-05-14T02:26:12.613Z,7.30
2023-05-14T02:28:41.979Z,5.88
2023-05-14T02:31:10.021Z,8.02
2023-05-14T02:33:37.991Z,8.25
2023-05-14T02:36:06.088Z,5.90
2023-05-14T02:38:34.031Z,7.93
2023-05-14T02:41:01.988Z,8.52
2023-05-14T02:43:29.958Z,5.88
2023-05-14T02:45:59.278Z,5.43
2023-05-14T02:48:27.296Z,6.55
2023-05-14T02:50:55.309Z,5.25
2023-05-14T02:53:23.191Z,5.95
2023-05-14T02:55:51.100Z,6.05
2023-05-14T02:58:19.199Z,5.50
2023-05-14T03:00:53.622Z,5.22
2023-05-14T03:03:23.487Z,5.00
2023-05-14T03:05:52.113Z,7.53
2023-05-14T03:08:20.052Z,7.65
2023-05-14T03:10:50.211Z,6.57
2023-05-14T03:13:20.063Z,8.50
2023-05-14T03:15:48.715Z,7.68
2023-05-14T03:18:16.703Z,5.63
2023-05-14T03:20:45.997Z,6.10
2023-05-14T03:23:14.927Z,5.32
2023-05-14T03:25:43.082Z,8.05
2023-05-14T03:28:11.040Z,5.70
2023-05-14T03:30:39.074Z,5.65
2023-05-14T03:33:07.264Z,5.00
2023-05-14T03:35:35.211Z,6.22
2023-05-14T03:38:04.488Z,5.18
2023-05-14T03:40:32.507Z,6.50
2023-05-14T03:43:00.427Z,5.78
2023-05-14T03:45:31.172Z,6.80
2023-05-14T03:47:59.233Z,8.40
2023-05-14T03:50:27.300Z,8.45
2023-05-14T03:52:55.290Z,6.63
2023-05-14T03:55:24.735Z,7.05
2023-05-14T03:57:52.836Z,6.28
2023-05-14T04:00:21.388Z,6.18
2023-05-14T04:02:49.702Z,7.88
2023-05-14T04:05:17.916Z,5.50
2023-05-14T04:07:46.490Z,6.07
2023-05-14T04:10:14.966Z,7.13
2023-05-14T04:12:44.279Z,5.30
2023-05-14T04:15:12.687Z,7.45
2023-05-14T04:17:40.712Z,5.68
2023-05-14T04:20:09.754Z,7.18
2023-05-14T04:22:37.659Z,5.57
2023-05-14T04:25:09.087Z,7.20
2023-05-14T04:27:37.109Z,5.15
2023-05-14T04:30:08.468Z,6.43
2023-05-14T04:32:36.586Z,5.40
2023-05-14T04:35:05.291Z,6.63
2023-05-14T04:37:33.359Z,7.50
2023-05-14T04:40:01.540Z,6.47
2023-05-14T04:42:32.441Z,7.07
2023-05-14T04:45:00.416Z,7.47
2023-05-14T04:47:29.868Z,5.28
2023-05-14T04:49:58.449Z,5.97
2023-05-14T04:52:27.254Z,7.03
2023-05-14T04:54:56.939Z,7.10
2023-05-14T04:57:25.122Z,5.95
2023-05-14T04:59:53.142Z,8.13
2023-05-14T05:02:21.318Z,6.22
2023-05-14T05:04:50.622Z,6.47
2023-05-14T05:07:21.145Z,7.38
2023-05-14T05:09:49.112Z,6.47
2023-05-14T05:12:17.076Z,7.03
2023-05-14T05:14:45.046Z,7.45
2023-05-14T05:17:17.303Z,8.02
2023-05-14T05:19:48.155Z,7.18
2023-05-14T05:22:17.506Z,6.57
2023-05-14T05:24:49.799Z,5.95
2023-05-14T05:27:18.092Z,7.13
2023-05-14T05:29:46.332Z,6.70
2023-05-14T05:32:14.469Z,4.70
2023-05-14T05:34:42.597Z,6.05
2023-05-14T05:37:12.865Z,7.80
2023-05-14T05:39:42.256Z,6.65
2023-05-14T05:42:10.484Z,5.30
2023-05-14T05:44:40.932Z,5.00
2023-05-14T05:47:08.937Z,6.32
2023-05-14T05:49:37.707Z,6.35
2023-05-14T05:52:06.322Z,6.22
2023-05-14T05:54:37.223Z,5.70
2023-05-14T05:57:06.915Z,4.68
2023-05-14T05:59:34.856Z,6.35
2023-05-14T06:02:06.024Z,5.07
2023-05-14T06:04:34.045Z,6.13
2023-05-14T06:07:03.647Z,5.07
2023-05-14T06:09:31.705Z,7.20
2023-05-14T06:11:59.666Z,6.30
2023-05-14T06:14:28.946Z,6.85
2023-05-14T06:16:56.943Z,8.90
2023-05-14T06:19:24.977Z,5.70
2023-05-14T06:21:53.005Z,5.32
2023-05-14T06:24:21.284Z,9.18
2023-05-14T06:26:50.532Z,5.63
2023-05-14T06:29:18.472Z,6.03
2023-05-14T06:31:50.466Z,5.20
2023-05-14T06:34:18.493Z,6.10
2023-05-14T06:36:46.592Z,5.80
2023-05-14T06:39:14.489Z,5.30
2023-05-14T06:41:42.499Z,7.20
2023-05-14T06:44:11.009Z,4.70
2023-05-14T06:46:39.056Z,5.97
2023-05-14T06:49:08.551Z,5.80
2023-05-14T06:51:36.626Z,5.80
2023-05-14T06:54:04.657Z,6.07
2023-05-14T06:56:32.581Z,4.80
2023-05-14T06:59:03.029Z,5.75
2023-05-14T07:01:31.472Z,5.25
2023-05-14T07:04:02.239Z,6.03
2023-05-14T07:06:32.521Z,6.68
2023-05-14T07:09:02.347Z,6.82
2023-05-14T07:11:30.511Z,7.20
2023-05-14T07:13:58.492Z,5.53
2023-05-14T07:16:26.553Z,5.68
2023-05-14T07:18:54.568Z,8.02
2023-05-14T07:21:22.581Z,8.35
2023-05-14T07:23:51.888Z,8.65
2023-05-14T07:26:19.874Z,7.88
2023-05-14T07:28:50.195Z,9.93
2023-05-14T07:31:18.355Z,11.65
2023-05-14T07:33:48.968Z,12.88
2023-05-14T07:36:17.118Z,11.00
2023-05-14T07:38:45.109Z,10.45
2023-05-14T07:41:14.609Z,16.30
2023-05-14T07:43:42.550Z,10.48
2023-05-14T07:46:10.655Z,10.95
2023-05-14T07:48:38.624Z,11.57
2023-05-14T07:51:06.647Z,12.40
2023-05-14T07:53:34.636Z,11.25
2023-05-14T07:56:02.749Z,11.32
2023-05-14T07:58:32.159Z,13.00
2023-05-14T08:01:01.401Z,10.38
2023-05-14T08:03:29.398Z,14.23
2023-05-14T08:05:57.425Z,11.43
2023-05-14T08:08:27.363Z,14.02
2023-05-14T08:10:55.800Z,9.45
2023-05-14T08:13:23.941Z,12.82
2023-05-14T08:15:53.287Z,11.32
2023-05-14T08:18:21.247Z,13.52
2023-05-14T08:20:49.429Z,9.35
2023-05-14T08:23:17.445Z,14.00
2023-05-14T08:25:47.941Z,12.48
2023-05-14T08:28:15.873Z,14.68
2023-05-14T08:30:43.916Z,13.98
2023-05-14T08:33:13.338Z,13.32
2023-05-14T08:35:41.313Z,13.07
2023-05-14T08:38:09.267Z,12.57
2023-05-14T08:40:37.235Z,12.52
2023-05-14T08:43:06.279Z,11.32
2023-05-14T08:45:36.508Z,11.13
2023-05-14T08:48:09.361Z,11.93
2023-05-14T08:50:38.897Z,12.90
2023-05-14T08:53:06.987Z,14.15
2023-05-14T08:55:35.324Z,12.55
2023-05-14T08:58:03.274Z,13.10
2023-05-14T09:00:31.323Z,12.57
2023-05-14T09:03:01.090Z,16.77
2023-05-14T09:05:29.409Z,13.23
2023-05-14T09:07:58.852Z,15.10
2023-05-14T09:10:27.096Z,17.10
2023-05-14T09:12:55.189Z,16.02
2023-05-14T09:15:24.939Z,11.27
2023-05-14T09:17:53.281Z,13.70
2023-05-14T09:20:21.719Z,14.77
2023-05-14T09:22:54.266Z,12.90
2023-05-14T09:25:32.109Z,11.45
2023-05-14T09:28:00.110Z,11.57
2023-05-14T09:30:31.188Z,13.10
2023-05-14T09:32:59.212Z,15.52
2023-05-14T09:35:27.178Z,12.68
2023-05-14T09:37:57.674Z,14.93
2023-05-14T09:40:25.887Z,13.38
2023-05-14T09:42:56.225Z,12.38
2023-05-14T09:45:24.356Z,12.00
2023-05-14T09:47:53.434Z,16.25
2023-05-14T09:50:21.741Z,10.40
2023-05-14T09:52:49.785Z,13.45
2023-05-14T09:55:17.826Z,10.35
2023-05-14T09:57:45.794Z,10.70
2023-05-14T10:00:17.130Z,11.85
2023-05-14T10:02:51.466Z,12.77
2023-05-14T10:05:20.847Z,8.88
2023-05-14T10:10:26.295Z,10.67
2023-05-14T10:12:59.880Z,11.77
2023-05-14T10:15:34.765Z,10.38
2023-05-14T10:18:08.328Z,9.13
2023-05-14T10:20:38.949Z,8.95
2023-05-14T10:23:10.437Z,10.63
2023-05-14T10:25:39.056Z,9.45
2023-05-14T10:28:07.602Z,9.82
2023-05-14T10:30:36.925Z,8.05
2023-05-14T10:33:09.886Z,11.00
2023-05-14T10:35:58.279Z,13.48
2023-05-14T10:38:28.296Z,9.77
2023-05-14T10:40:59.049Z,8.18
2023-05-14T10:43:30.708Z,9.63
2023-05-14T10:46:01.592Z,7.35
2023-05-14T10:48:30.060Z,11.10
2023-05-14T10:50:58.892Z,7.03
2023-05-14T10:53:37.975Z,7.70
2023-05-14T10:56:08.269Z,7.13
2023-05-14T10:58:40.008Z,7.50
2023-05-14T11:01:11.137Z,8.27
2023-05-14T11:03:45.547Z,7.22
2023-05-14T11:06:16.091Z,7.57
2023-05-14T11:08:46.718Z,9.65
2023-05-14T11:11:15.219Z,8.52
2023-05-14T11:13:44.065Z,7.47
2023-05-14T11:18:49.845Z,6.20
2023-05-14T11:21:18.673Z,6.47
2023-05-14T11:23:48.235Z,6.40
2023-05-14T11:26:21.520Z,5.50
2023-05-14T11:28:50.428Z,6.32
2023-05-14T11:31:20.104Z,6.70
2023-05-14T11:33:48.189Z,5.60
2023-05-14T11:36:19.118Z,8.73
2023-05-14T11:38:50.585Z,6.00
2023-05-14T11:41:20.981Z,7.72
2023-05-14T11:43:49.354Z,5.38
2023-05-14T11:46:19.778Z,6.95
2023-05-14T11:48:48.343Z,6.25
2023-05-14T11:51:16.397Z,6.88
2023-05-14T11:53:46.078Z,7.25
2023-05-14T11:56:14.125Z,6.13
2023-05-14T11:58:42.151Z,5.03
2023-05-14T12:01:14.863Z,5.55
2023-05-14T12:03:44.564Z,7.78
2023-05-14T12:06:12.756Z,7.15
2023-05-14T12:08:40.896Z,5.10
2023-05-14T12:11:10.205Z,5.43
2023-05-14T12:13:38.229Z,4.65
2023-05-14T12:16:06.626Z,9.15
2023-05-14T12:18:34.993Z,5.68
2023-05-14T12:21:08.957Z,6.47
2023-05-14T12:23:39.586Z,5.03
2023-05-14T12:26:09.785Z,8.27
2023-05-14T12:28:43.375Z,6.28
2023-05-14T12:31:16.798Z,4.95
2023-05-14T12:33:44.727Z,5.90
2023-05-14T12:38:51.510Z,4.90
2023-05-14T12:41:19.476Z,6.80
2023-05-14T12:43:49.336Z,7.00
2023-05-14T12:46:17.546Z,5.90
2023-05-14T12:48:46.418Z,5.07
2023-05-14T12:51:16.267Z,4.57
2023-05-14T12:53:44.312Z,4.40
2023-05-14T12:56:14.856Z,5.55
2023-05-14T12:58:42.969Z,4.28
2023-05-14T13:01:10.933Z,5.85
2023-05-14T13:03:38.956Z,4.72
2023-05-14T13:06:07.183Z,4.10
2023-05-14T13:08:36.674Z,5.35
2023-05-14T13:11:04.669Z,4.63
2023-05-14T13:13:32.599Z,4.55
2023-05-14T13:16:01.010Z,5.32
2023-05-14T13:18:32.138Z,4.68
2023-05-14T13:21:00.419Z,5.25
2023-05-14T13:23:28.462Z,3.70
2023-05-14T13:25:57.750Z,4.85
2023-05-14T13:28:25.662Z,3.88
2023-05-14T13:31:08.105Z,4.57
2023-05-14T13:36:05.630Z,4.88
2023-05-14T13:38:33.665Z,3.70
2023-05-14T13:41:03.226Z,4.25
2023-05-14T13:43:31.856Z,4.35
2023-05-14T13:45:59.971Z,4.38
2023-05-14T13:48:28.328Z,4.35
2023-05-14T13:50:56.466Z,4.10
2023-05-14T13:53:26.093Z,4.93
2023-05-14T13:55:58.516Z,3.97
2023-05-14T13:58:29.279Z,4.97
2023-05-14T14:00:57.697Z,3.90
2023-05-14T14:03:25.882Z,4.20
2023-05-14T14:05:53.861Z,4.38
2023-05-14T14:08:23.846Z,3.80
2023-05-14T14:10:54.469Z,7.72
2023-05-14T14:13:23.329Z,3.70
2023-05-14T14:15:52.915Z,4.60
2023-05-14T14:18:20.986Z,5.65
2023-05-14T14:20:49.188Z,4.25
2023-05-14T14:23:17.209Z,4.13
2023-05-14T14:25:46.416Z,4.32
2023-05-14T14:28:14.546Z,5.38
2023-05-14T14:30:43.717Z,3.97
2023-05-14T14:33:13.164Z,3.97
2023-05-14T14:35:41.101Z,7.05
2023-05-14T14:38:09.073Z,3.90
2023-05-14T14:40:37.026Z,3.92
2023-05-14T14:43:05.010Z,4.03
2023-05-14T14:45:32.995Z,3.90
2023-05-14T14:48:31.514Z,4.28
2023-05-14T14:51:00.986Z,8.02
2023-05-14T14:53:29.022Z,6.15
2023-05-14T14:55:57.806Z,4.05
2023-05-14T14:58:26.141Z,4.10
2023-05-14T15:00:58.243Z,3.88
2023-05-14T15:03:27.836Z,5.18
2023-05-14T15:05:55.927Z,6.57
2023-05-14T15:08:28.493Z,6.57
2023-05-14T15:10:57.404Z,6.18
2023-05-14T15:13:26.945Z,5.30
2023-05-14T15:15:54.949Z,5.40
2023-05-14T15:18:22.880Z,4.75
2023-05-14T15:20:52.774Z,5.40
2023-05-14T15:23:20.740Z,4.63
2023-05-14T15:25:51.534Z,7.43
2023-05-14T15:28:19.555Z,4.10
2023-05-14T15:30:49.151Z,4.28
2023-05-14T15:33:19.111Z,4.78
2023-05-14T15:35:47.137Z,4.60
2023-05-14T15:38:16.496Z,5.47
2023-05-14T15:40:44.506Z,5.68
2023-05-14T15:43:12.570Z,6.22
2023-05-14T15:45:40.511Z,4.72
2023-05-14T15:48:08.514Z,4.55
2023-05-14T15:50:36.448Z,5.25
2023-05-14T15:53:04.450Z,5.57
2023-05-14T15:55:33.776Z,4.30
2023-05-14T15:58:04.255Z,5.40
2023-05-14T16:00:32.200Z,4.28
2023-05-14T16:03:00.337Z,4.70
2023-05-14T16:05:28.459Z,4.28
2023-05-14T16:07:56.409Z,4.93
2023-05-14T16:10:24.553Z,4.72
2023-05-14T16:12:54.165Z,5.72
2023-05-14T16:15:22.256Z,5.90
2023-05-14T16:17:50.237Z,5.20
2023-05-14T16:20:18.196Z,4.10
2023-05-14T16:22:46.257Z,4.10
2023-05-14T16:25:14.209Z,4.07
2023-05-14T16:27:42.329Z,4.53
2023-05-14T16:30:12.488Z,6.05
2023-05-14T16:32:42.014Z,4.28
2023-05-14T16:35:10.939Z,4.55
2023-05-14T16:37:38.897Z,4.40
2023-05-14T16:40:10.225Z,4.55
2023-05-14T16:42:38.207Z,4.77
2023-05-14T16:45:09.289Z,4.35
2023-05-14T16:47:38.676Z,4.85
2023-05-14T16:50:08.191Z,6.00
2023-05-14T16:52:36.110Z,7.53
2023-05-14T16:55:04.272Z,6.45
2023-05-14T16:57:32.229Z,6.68
2023-05-14T17:00:00.389Z,6.55
2023-05-14T17:02:28.375Z,4.50
2023-05-14T17:04:57.983Z,5.47
2023-05-14T17:07:26.042Z,5.13
2023-05-14T17:09:56.829Z,6.15
2023-05-14T17:12:24.877Z,6.43
2023-05-14T17:14:52.959Z,6.03
2023-05-14T17:17:20.967Z,6.18
2023-05-14T17:19:49.077Z,7.32
2023-05-14T17:22:18.452Z,5.20
2023-05-14T17:24:46.426Z,6.57
2023-05-14T17:27:16.010Z,4.10
2023-05-14T17:29:44.738Z,5.90
2023-05-14T17:32:12.735Z,5.60
2023-05-14T17:34:40.711Z,5.75
2023-05-14T17:37:08.739Z,5.40
2023-05-14T17:39:38.046Z,4.57
2023-05-14T17:42:07.002Z,7.05
2023-05-14T17:44:34.970Z,6.18
2023-05-14T17:47:03.217Z,4.60
2023-05-14T17:49:33.973Z,3.97
2023-05-14T17:52:02.057Z,4.88
2023-05-14T17:54:30.054Z,5.10
2023-05-14T17:56:59.594Z,5.82
2023-05-14T17:59:27.791Z,5.18
2023-05-14T18:01:55.783Z,5.63
2023-05-14T18:04:23.759Z,4.90
2023-05-14T18:06:51.934Z,4.25
2023-05-14T18:09:19.915Z,5.18
2023-05-14T18:11:49.470Z,4.70
2023-05-14T18:14:19.045Z,5.00
2023-05-14T18:16:47.180Z,5.30
2023-05-14T18:19:15.701Z,4.40
2023-05-14T18:21:46.590Z,5.88
2023-05-14T18:24:14.577Z,4.18
2023-05-14T18:26:42.591Z,4.90
2023-05-14T18:29:10.549Z,6.07
2023-05-14T18:31:39.935Z,4.35
2023-05-14T18:34:07.902Z,4.60
2023-05-14T18:36:35.902Z,4.32
2023-05-14T18:39:03.862Z,6.63
2023-05-14T18:41:31.804Z,4.82
2023-05-14T18:43:59.700Z,4.47
2023-05-14T18:46:27.726Z,4.93
2023-05-14T18:48:59.707Z,4.25
2023-05-14T18:51:30.742Z,6.13
2023-05-14T18:54:01.542Z,4.65
2023-05-14T18:56:29.639Z,5.72
2023-05-14T18:59:00.297Z,7.05
2023-05-14T19:01:28.289Z,7.05
2023-05-14T19:03:56.551Z,4.35
2023-05-14T19:06:26.365Z,5.28
2023-05-14T19:08:54.352Z,6.65
2023-05-14T19:11:22.648Z,8.43
2023-05-14T19:13:50.591Z,5.80
2023-05-14T19:16:18.588Z,6.47
2023-05-14T19:18:46.669Z,7.57
2023-05-14T19:21:15.899Z,4.50
2023-05-14T19:23:45.529Z,4.72
2023-05-14T19:28:43.920Z,4.90
2023-05-14T19:31:12.077Z,5.43
2023-05-14T19:33:40.010Z,6.43
2023-05-14T19:36:08.181Z,4.13
2023-05-14T19:38:36.212Z,4.88
2023-05-14T19:41:05.513Z,7.05
2023-05-14T19:43:33.456Z,4.53
2023-05-14T19:46:01.835Z,5.18
2023-05-14T19:48:29.818Z,5.38
2023-05-14T19:50:57.861Z,6.25
2023-05-14T19:53:29.712Z,5.32
2023-05-14T19:55:58.160Z,5.43
2023-05-14T19:58:29.434Z,4.70
2023-05-14T20:00:58.550Z,5.63
2023-05-14T20:03:29.924Z,7.15
2023-05-14T20:05:58.038Z,6.10
2023-05-14T20:08:26.472Z,5.18
2023-05-14T20:10:54.441Z,4.93
2023-05-14T20:13:25.011Z,5.80
2023-05-14T20:15:55.417Z,4.72
2023-05-14T20:18:23.511Z,4.38
2023-05-14T20:20:51.842Z,5.50
2023-05-14T20:23:20.693Z,6.22
2023-05-14T20:25:53.145Z,6.40
2023-05-14T20:28:21.207Z,4.65
2023-05-14T20:30:49.153Z,6.05
2023-05-14T20:33:18.458Z,5.60
2023-05-14T20:35:48.423Z,7.63
2023-05-14T20:38:18.481Z,7.38
2023-05-14T20:40:46.572Z,6.85
2023-05-14T20:43:14.500Z,4.60
2023-05-14T20:45:42.465Z,5.28
2023-05-14T20:48:12.177Z,5.55
2023-05-14T20:50:41.662Z,4.53
2023-05-14T20:53:09.623Z,5.15
2023-05-14T20:55:37.556Z,5.55
2023-05-14T20:58:05.472Z,5.15
2023-05-14T21:00:33.426Z,6.22
2023-05-14T21:03:01.614Z,7.00
2023-05-14T21:05:33.445Z,6.40
2023-05-14T21:08:02.850Z,4.47
2023-05-14T21:10:30.824Z,5.18
2023-05-14T21:12:58.759Z,4.78
2023-05-14T21:15:27.447Z,6.35
2023-05-14T21:17:55.618Z,4.45
2023-05-14T21:20:23.582Z,5.05
2023-05-14T21:22:51.514Z,4.80
2023-05-14T21:25:23.336Z,5.82
2023-05-14T21:27:51.659Z,4.47
2023-05-14T21:30:19.766Z,5.93
2023-05-14T21:32:47.756Z,6.88
2023-05-14T21:35:15.760Z,5.65
2023-05-14T21:37:43.707Z,5.22
2023-05-14T21:40:13.164Z,4.95
2023-05-14T21:42:42.545Z,5.68
2023-05-14T21:45:12.622Z,6.22
2023-05-14T21:47:40.630Z,6.47
2023-05-14T21:50:09.491Z,8.50
2023-05-14T21:52:38.189Z,5.38
2023-05-14T21:55:06.941Z,5.68
2023-05-14T21:57:35.134Z,6.03
2023-05-14T22:00:08.087Z,6.20
2023-05-14T22:02:36.094Z,6.45
2023-05-14T22:05:04.044Z,7.65
2023-05-14T22:07:32.867Z,5.30
2023-05-14T22:10:01.127Z,6.78
2023-05-14T22:12:29.103Z,5.00
2023-05-14T22:14:57.093Z,6.05
2023-05-14T22:17:28.025Z,4.35
2023-05-14T22:19:56.029Z,4.68
2023-05-14T22:22:24.008Z,5.63
2023-05-14T22:24:51.972Z,6.95
2023-05-14T22:27:20.018Z,6.28
2023-05-14T22:29:48.017Z,6.90
2023-05-14T22:32:16.018Z,5.90
2023-05-14T22:34:45.386Z,5.30
2023-05-14T22:37:13.379Z,5.25
2023-05-14T22:39:41.336Z,6.63
2023-05-14T22:42:09.625Z,5.53
2023-05-14T22:44:37.683Z,5.97
2023-05-14T22:47:06.308Z,6.82
2023-05-14T22:49:34.266Z,7.50
2023-05-14T22:52:03.589Z,5.57
2023-05-14T22:54:31.626Z,5.82
2023-05-14T22:57:02.611Z,7.25
2023-05-14T22:59:30.590Z,5.10
2023-05-14T23:01:58.617Z,5.18
2023-05-14T23:04:26.649Z,5.68
2023-05-14T23:06:57.577Z,6.95
2023-05-14T23:09:26.859Z,5.35
2023-05-14T23:11:55.031Z,5.95
2023-05-14T23:14:22.965Z,5.45
2023-05-14T23:16:50.908Z,7.05
2023-05-14T23:19:19.044Z,7.57
2023-05-14T23:21:47.141Z,4.93
2023-05-14T23:24:15.122Z,5.88
2023-05-14T23:26:44.640Z,5.53
2023-05-14T23:29:12.604Z,4.75
2023-05-14T23:31:41.114Z,6.57
2023-05-14T23:34:09.134Z,4.95
2023-05-14T23:36:37.168Z,7.18
2023-05-14T23:39:05.707Z,4.72
2023-05-14T23:41:33.685Z,5.13
2023-05-14T23:44:03.191Z,6.35
2023-05-14T23:46:31.558Z,5.47
2023-05-14T23:48:59.698Z,6.55
2023-05-14T23:51:30.083Z,5.15
2023-05-14T23:53:58.743Z,5.00
2023-05-14T23:56:30.308Z,6.25
2023-05-14T23:58:58.383Z,7.80
